Time;durP1;ratioP1;P1;durP2;ratioP2;P2;SDS_P1;SDS_P2;PMS_P1;PMS_P2;Temp;Humidity;BMP_temperature;BMP_pressure;BME280_temperature;BME280_humidity;BME280_pressure;Samples;Min_cycle;Max_cycle;Signal;HPM_P1;HPM_P2
2023/01/23 00:02:08;;;;;;;2.63;2.10;;;12.80;47.40;;;;;;5086316;28;45433;-71
2023/01/23 00:04:36;;;;;;;2.90;2.17;;;12.80;47.40;;;;;;5086446;28;45380;-71
2023/01/23 00:07:03;;;;;;;2.58;2.10;;;12.80;47.30;;;;;;5085994;27;45570;-71
2023/01/23 00:09:30;;;;;;;2.53;1.97;;;12.80;47.40;;;;;;5086220;28;45403;-71
2023/01/23 00:11:57;;;;;;;2.50;2.17;;;12.80;47.40;;;;;;5086204;28;45314;-71
2023/01/23 00:14:24;;;;;;;2.07;1.87;;;12.80;47.40;;;;;;5086238;27;45651;-71
2023/01/23 00:16:51;;;;;;;2.30;2.10;;;12.80;47.40;;;;;;5085691;28;46689;-71
2023/01/23 00:19:18;;;;;;;1.90;1.80;;;12.80;47.30;;;;;;5085826;28;45177;-71
2023/01/23 00:21:46;;;;;;;2.13;1.93;;;12.70;47.30;;;;;;5086062;27;45346;-70
2023/01/23 00:24:13;;;;;;;2.30;2.00;;;12.70;47.40;;;;;;5086114;28;45279;-70
2023/01/23 00:26:41;;;;;;;2.40;2.20;;;12.70;47.30;;;;;;5085769;28;45229;-71
2023/01/23 00:29:08;;;;;;;1.70;1.60;;;12.70;47.40;;;;;;5085665;28;45186;-70
2023/01/23 00:31:36;;;;;;;3.50;2.20;;;12.80;47.50;;;;;;5083291;28;45466;-70
2023/01/23 00:34:04;;;;;;;2.40;2.20;;;12.80;47.40;;;;;;5086015;28;45302;-71
2023/01/23 00:36:33;;;;;;;2.20;2.00;;;12.90;47.20;;;;;;5085653;28;46740;-71
2023/01/23 00:39:02;;;;;;;1.83;1.73;;;12.90;47.10;;;;;;5085553;28;45295;-71
2023/01/23 00:41:28;;;;;;;2.17;2.00;;;13.00;47.00;;;;;;5085715;28;45367;-71
2023/01/23 00:43:55;;;;;;;2.13;1.80;;;13.00;46.80;;;;;;5085865;28;45452;-71
2023/01/23 00:46:22;;;;;;;3.50;1.92;;;13.10;46.60;;;;;;5085494;28;46853;-72
2023/01/23 00:48:49;;;;;;;2.53;2.10;;;13.20;46.50;;;;;;5085387;28;45245;-71
2023/01/23 00:51:16;;;;;;;2.83;1.97;;;13.20;46.30;;;;;;5085589;27;45229;-71
2023/01/23 00:53:43;;;;;;;2.85;2.22;;;13.30;46.30;;;;;;5089322;28;45576;-70
2023/01/23 00:56:11;;;;;;;3.50;2.30;;;13.30;46.30;;;;;;5089123;28;47466;-71
2023/01/23 00:58:39;;;;;;;1.87;1.77;;;13.30;46.30;;;;;;5088875;28;45265;-70
2023/01/23 01:01:06;;;;;;;1.98;1.83;;;13.20;46.30;;;;;;5089079;28;45276;-71
2023/01/23 01:03:33;;;;;;;2.38;2.17;;;13.20;46.30;;;;;;5089067;28;45224;-70
2023/01/23 01:05:59;;;;;;;2.10;2.00;;;13.20;46.40;;;;;;5088749;28;45473;-71
2023/01/23 01:08:26;;;;;;;1.95;1.85;;;13.20;46.50;;;;;;5088744;27;45256;-70
2023/01/23 01:10:53;;;;;;;2.42;1.80;;;13.20;46.50;;;;;;5088979;27;45186;-71
2023/01/23 01:13:22;;;;;;;2.80;1.80;;;13.10;46.50;;;;;;5089049;28;45401;-71
2023/01/23 01:15:49;;;;;;;2.55;2.00;;;13.10;46.60;;;;;;5088605;27;46560;-71
2023/01/23 01:18:16;;;;;;;2.47;2.28;;;13.10;46.60;;;;;;5088687;28;45188;-71
2023/01/23 01:20:43;;;;;;;2.17;1.97;;;13.10;46.70;;;;;;5088809;28;45268;-71
2023/01/23 01:23:10;;;;;;;2.40;2.20;;;13.00;46.80;;;;;;5088887;28;45344;-71
2023/01/23 01:25:36;;;;;;;3.27;2.30;;;13.00;46.80;;;;;;5088253;28;45418;-70
2023/01/23 01:28:03;;;;;;;1.93;1.73;;;13.00;46.90;;;;;;5088540;28;45296;-71
2023/01/23 01:30:32;;;;;;;2.30;2.10;;;13.00;46.90;;;;;;5088579;27;45366;-70
2023/01/23 01:32:58;;;;;;;2.13;1.70;;;13.00;46.90;;;;;;5088864;27;45183;-71
2023/01/23 01:35:25;;;;;;;2.90;2.30;;;13.00;47.00;;;;;;5088216;28;46748;-71
2023/01/23 01:37:52;;;;;;;2.70;1.90;;;13.00;47.00;;;;;;5088139;28;45387;-71
2023/01/23 01:40:19;;;;;;;2.17;1.80;;;12.90;47.00;;;;;;5088584;28;45308;-71
2023/01/23 01:42:49;;;;;;;1.88;1.70;;;12.90;47.00;;;;;;5088606;28;45291;-71
2023/01/23 01:45:53;;;;;;;1.90;1.80;;;12.90;47.10;;;;;;5088060;28;46402;-71
2023/01/23 01:48:24;;;;;;;2.22;2.03;;;12.90;47.20;;;;;;5087974;27;45253;-71
2023/01/23 01:50:51;;;;;;;2.22;1.95;;;12.90;47.20;;;;;;5088351;28;45391;-71
2023/01/23 01:53:18;;;;;;;1.90;1.80;;;12.90;47.20;;;;;;5088397;28;45217;-71
2023/01/23 01:55:45;;;;;;;2.95;1.90;;;12.90;47.20;;;;;;5087953;28;46434;-71
2023/01/23 01:58:12;;;;;;;2.38;2.10;;;12.90;47.30;;;;;;5088180;28;45387;-71
2023/01/23 02:00:39;;;;;;;1.93;1.60;;;12.80;47.20;;;;;;5088170;27;45374;-71
2023/01/23 02:03:06;;;;;;;3.65;1.92;;;12.80;47.30;;;;;;5087953;27;45271;-71
2023/01/23 02:05:35;;;;;;;2.10;1.90;;;12.80;47.30;;;;;;5087900;28;46276;-71
2023/01/23 02:08:05;;;;;;;1.70;1.60;;;12.80;47.30;;;;;;5087735;27;45208;-70
2023/01/23 02:10:33;;;;;;;2.00;1.70;;;12.80;47.30;;;;;;5087741;28;45249;-71
2023/01/23 02:13:19;;;;;;;2.00;1.80;;;12.80;47.30;;;;;;5088287;28;45410;-71
2023/01/23 02:15:46;;;;;;;2.33;1.90;;;12.80;47.30;;;;;;5087812;28;45214;-71
2023/01/23 02:18:13;;;;;;;1.98;1.85;;;12.80;47.30;;;;;;5087625;28;45319;-71
2023/01/23 02:20:41;;;;;;;1.70;1.60;;;12.80;47.30;;;;;;5087882;28;45233;-71
2023/01/23 02:23:10;;;;;;;2.45;1.90;;;12.80;47.30;;;;;;5087893;28;45320;-71
2023/01/23 02:25:40;;;;;;;1.92;1.73;;;12.80;47.30;;;;;;5087116;28;47566;-71
2023/01/23 02:28:09;;;;;;;1.70;1.60;;;12.80;47.40;;;;;;5087435;28;45291;-72
2023/01/23 02:30:36;;;;;;;2.33;1.80;;;12.80;47.40;;;;;;5087638;27;45176;-70
2023/01/23 02:33:09;;;;;;;1.77;1.50;;;12.80;47.40;;;;;;5087736;28;45262;-71
2023/01/23 02:35:36;;;;;;;2.07;1.87;;;12.70;47.30;;;;;;5087526;28;47929;-70
2023/01/23 02:38:04;;;;;;;1.60;1.50;;;12.70;47.30;;;;;;5087362;28;45326;-71
2023/01/23 02:40:32;;;;;;;1.90;1.70;;;12.70;47.40;;;;;;5087522;28;45249;-70
2023/01/23 02:42:59;;;;;;;1.80;1.70;;;12.70;47.40;;;;;;5087769;27;45182;-71
2023/01/23 02:45:27;;;;;;;1.80;1.70;;;12.70;47.40;;;;;;5087187;28;46489;-71
2023/01/23 02:47:54;;;;;;;1.90;1.50;;;12.70;47.40;;;;;;5087306;28;45329;-70
2023/01/23 02:50:21;;;;;;;1.75;1.65;;;12.70;47.40;;;;;;5087278;28;45271;-71
2023/01/23 02:52:49;;;;;;;1.67;1.50;;;12.70;47.40;;;;;;5087649;28;45308;-70
2023/01/23 02:55:16;;;;;;;1.63;1.53;;;12.70;47.30;;;;;;5086985;28;46669;-71
2023/01/23 02:57:44;;;;;;;1.50;1.40;;;12.80;47.30;;;;;;5087255;27;45334;-70
2023/01/23 03:00:18;;;;;;;1.37;1.27;;;12.80;47.20;;;;;;5087223;28;45354;-71
2023/01/23 03:02:47;;;;;;;1.47;1.37;;;12.90;47.20;;;;;;5087541;27;45545;-70
2023/01/23 03:05:14;;;;;;;1.83;1.53;;;13.00;47.00;;;;;;5086853;28;45215;-71
2023/01/23 03:07:41;;;;;;;1.73;1.60;;;13.00;46.80;;;;;;5086651;28;45212;-72
2023/01/23 03:10:09;;;;;;;2.17;1.60;;;13.10;46.60;;;;;;5086816;28;45272;-71
2023/01/23 03:12:41;;;;;;;2.03;1.60;;;13.20;46.50;;;;;;5087051;27;45328;-71
2023/01/23 03:15:09;;;;;;;1.77;1.67;;;13.20;46.40;;;;;;5086127;27;47341;-71
2023/01/23 03:17:36;;;;;;;1.55;1.45;;;13.20;46.30;;;;;;5086663;27;45239;-71
2023/01/23 03:20:05;;;;;;;1.40;1.30;;;13.20;46.20;;;;;;5087014;28;45439;-71
2023/01/23 03:22:31;;;;;;;1.75;1.65;;;13.20;46.30;;;;;;5087073;27;45201;-71
2023/01/23 03:24:58;;;;;;;1.40;1.30;;;13.20;46.30;;;;;;5086414;28;46465;-71
2023/01/23 03:27:25;;;;;;;1.50;1.40;;;13.20;46.40;;;;;;5086682;28;45313;-71
2023/01/23 03:32:37;;;;;;;1.53;1.40;;;13.10;46.40;;;;;;5084276;28;45244;-70
2023/01/23 03:35:06;;;;;;;1.50;1.40;;;13.10;46.50;;;;;;5086470;28;45429;-71
2023/01/23 03:37:33;;;;;;;1.43;1.33;;;13.10;46.60;;;;;;5086636;28;45484;-70
2023/01/23 03:42:44;;;;;;;1.60;1.50;;;13.00;46.70;;;;;;5084033;28;45290;-72
2023/01/23 03:45:11;;;;;;;1.60;1.30;;;13.00;46.80;;;;;;5086183;28;46201;-71
2023/01/23 03:47:38;;;;;;;1.50;1.40;;;13.00;46.80;;;;;;5086258;27;45253;-71
2023/01/23 03:50:08;;;;;;;1.10;1.10;;;12.90;46.80;;;;;;5086389;28;45278;-72
2023/01/23 03:52:36;;;;;;;1.70;1.60;;;13.00;46.90;;;;;;5086692;28;45279;-72
2023/01/23 03:55:03;;;;;;;1.57;1.47;;;12.90;46.90;;;;;;5086336;28;45225;-72
2023/01/23 03:57:30;;;;;;;1.40;1.30;;;12.90;47.00;;;;;;5086236;28;45236;-72
2023/01/23 03:59:57;;;;;;;1.70;1.60;;;12.90;47.00;;;;;;5086294;28;45231;-72
2023/01/23 04:02:24;;;;;;;1.67;1.50;;;12.80;47.00;;;;;;5086428;28;45340;-72
2023/01/23 04:04:51;;;;;;;1.60;1.50;;;12.80;47.10;;;;;;5086032;28;46381;-73
2023/01/23 04:07:19;;;;;;;1.50;1.40;;;12.80;47.40;;;;;;5085936;28;45424;-71
2023/01/23 04:09:46;;;;;;;1.70;1.60;;;12.80;47.10;;;;;;5085968;27;45184;-72
2023/01/23 04:12:13;;;;;;;1.30;1.20;;;12.80;47.20;;;;;;5086475;28;45166;-72
2023/01/23 04:14:40;;;;;;;1.40;1.30;;;12.80;47.20;;;;;;5086129;28;46440;-71
2023/01/23 04:17:07;;;;;;;1.73;1.63;;;12.80;47.20;;;;;;5085790;28;45369;-72
2023/01/23 04:19:34;;;;;;;1.85;1.70;;;12.80;47.20;;;;;;5086063;28;45196;-72
2023/01/23 04:22:01;;;;;;;1.63;1.50;;;12.80;47.20;;;;;;5086276;28;45205;-72
2023/01/23 04:24:30;;;;;;;1.90;1.70;;;12.80;47.30;;;;;;5085493;28;46701;-72
2023/01/23 04:26:56;;;;;;;1.80;1.57;;;12.80;47.30;;;;;;5088294;27;45307;-70
2023/01/23 04:29:23;;;;;;;2.00;1.90;;;12.80;47.30;;;;;;5089470;28;45349;-71
2023/01/23 04:31:50;;;;;;;1.50;1.40;;;12.80;47.30;;;;;;5089951;28;45321;-70
2023/01/23 04:34:17;;;;;;;1.30;1.30;;;12.80;47.40;;;;;;5089208;28;45201;-71
2023/01/23 04:36:44;;;;;;;2.03;1.48;;;12.70;47.40;;;;;;5089333;28;45295;-70
2023/01/23 04:39:11;;;;;;;2.03;1.80;;;12.70;47.40;;;;;;5089534;28;45254;-70
2023/01/23 04:41:39;;;;;;;1.63;1.50;;;12.70;47.40;;;;;;5089553;28;45283;-70
2023/01/23 04:44:19;;;;;;;1.67;1.50;;;12.70;47.40;;;;;;5089153;28;45436;-70
2023/01/23 04:46:48;;;;;;;1.73;1.60;;;12.70;47.40;;;;;;5089021;28;45306;-70
2023/01/23 04:49:15;;;;;;;1.63;1.40;;;12.70;47.40;;;;;;5089202;28;45188;-70
2023/01/23 04:51:43;;;;;;;1.93;1.73;;;12.70;47.40;;;;;;5089503;27;45302;-72
2023/01/23 04:54:10;;;;;;;1.80;1.60;;;12.70;47.40;;;;;;5088816;28;46932;-71
2023/01/23 04:56:37;;;;;;;2.10;1.60;;;12.70;47.40;;;;;;5088907;28;45310;-72
2023/01/23 04:59:05;;;;;;;1.50;1.40;;;12.70;47.40;;;;;;5089259;28;45394;-71
2023/01/23 05:01:32;;;;;;;1.63;1.50;;;12.60;47.40;;;;;;5089200;28;45407;-73
2023/01/23 05:03:59;;;;;;;1.75;1.40;;;12.70;47.40;;;;;;5088930;28;46651;-72
2023/01/23 05:06:26;;;;;;;2.20;2.00;;;12.70;47.40;;;;;;5089049;27;45394;-71
2023/01/23 05:08:53;;;;;;;1.40;1.30;;;12.70;47.50;;;;;;5088793;28;45287;-70
2023/01/23 05:11:20;;;;;;;3.25;1.33;;;12.70;47.50;;;;;;5089075;28;45403;-71
2023/01/23 05:13:47;;;;;;;2.30;1.30;;;12.70;47.50;;;;;;5088855;28;46346;-70
2023/01/23 05:16:15;;;;;;;1.47;1.37;;;12.70;47.50;;;;;;5088838;28;45200;-70
2023/01/23 05:18:41;;;;;;;1.27;1.23;;;12.70;47.50;;;;;;5088937;27;45338;-71
2023/01/23 05:21:08;;;;;;;1.87;1.47;;;12.70;47.50;;;;;;5088865;28;45348;-70
2023/01/23 05:23:36;;;;;;;1.30;1.20;;;12.70;47.50;;;;;;5088321;28;45256;-71
2023/01/23 05:26:02;;;;;;;1.47;1.33;;;12.70;47.50;;;;;;5088777;28;45234;-71
2023/01/23 05:28:29;;;;;;;1.67;1.50;;;12.60;47.50;;;;;;5088641;28;45401;-71
2023/01/23 05:30:56;;;;;;;1.27;1.23;;;12.70;47.60;;;;;;5088601;28;45221;-70
2023/01/23 05:33:24;;;;;;;2.33;1.73;;;12.60;47.50;;;;;;5088430;28;47269;-70
2023/01/23 05:35:51;;;;;;;1.42;1.33;;;12.60;47.50;;;;;;5088297;27;45259;-71
2023/01/23 05:38:18;;;;;;;1.50;1.40;;;12.70;47.60;;;;;;5087558;27;45319;-70
2023/01/23 05:40:45;;;;;;;1.50;1.40;;;12.70;47.40;;;;;;5088603;28;45447;-70
2023/01/23 05:43:13;;;;;;;1.90;1.52;;;12.80;47.40;;;;;;5088239;28;45422;-70
2023/01/23 05:45:40;;;;;;;1.52;1.40;;;12.90;47.20;;;;;;5088304;27;45114;-70
2023/01/23 05:48:07;;;;;;;1.42;1.30;;;13.00;46.90;;;;;;5088527;28;45324;-70
2023/01/23 05:50:35;;;;;;;1.33;1.27;;;13.10;46.60;;;;;;5088575;28;45379;-70
2023/01/23 05:53:02;;;;;;;1.67;1.58;;;13.20;46.40;;;;;;5087943;28;45353;-71
2023/01/23 05:55:29;;;;;;;1.40;1.10;;;13.30;46.20;;;;;;5088058;28;45472;-71
2023/01/23 05:57:57;;;;;;;1.75;1.65;;;13.40;46.10;;;;;;5087959;28;45384;-70
2023/01/23 06:00:24;;;;;;;1.30;1.20;;;13.40;46.00;;;;;;5088333;28;45409;-70
2023/01/23 06:02:51;;;;;;;2.00;1.63;;;13.40;45.90;;;;;;5087661;28;46614;-70
2023/01/23 06:05:18;;;;;;;1.27;1.25;;;13.40;45.90;;;;;;5087947;28;45431;-71
2023/01/23 06:07:46;;;;;;;1.75;1.60;;;13.40;45.90;;;;;;5087976;28;45195;-70
2023/01/23 06:10:13;;;;;;;1.65;1.55;;;13.40;46.00;;;;;;5088322;27;45247;-71
2023/01/23 06:12:40;;;;;;;1.75;1.30;;;13.40;46.00;;;;;;5087642;28;46670;-70
2023/01/23 06:15:08;;;;;;;2.00;1.75;;;13.40;46.00;;;;;;5087783;28;45257;-70
2023/01/23 06:17:35;;;;;;;2.40;1.65;;;13.40;46.00;;;;;;5087892;27;45431;-70
2023/01/23 06:20:02;;;;;;;1.67;1.52;;;13.30;46.00;;;;;;5087833;28;45604;-70
2023/01/23 06:22:29;;;;;;;2.85;1.63;;;13.30;46.10;;;;;;5087429;28;45229;-70
2023/01/23 06:24:57;;;;;;;1.43;1.33;;;13.30;46.10;;;;;;5087248;28;45327;-70
2023/01/23 06:27:24;;;;;;;2.67;1.70;;;13.30;46.70;;;;;;5087485;28;45303;-70
2023/01/23 06:29:50;;;;;;;1.73;1.40;;;13.30;46.20;;;;;;5087980;28;45184;-70
2023/01/23 06:32:17;;;;;;;1.57;1.40;;;13.30;46.20;;;;;;5087530;28;46391;-70
2023/01/23 06:34:44;;;;;;;1.35;1.27;;;13.30;46.30;;;;;;5087460;28;45189;-70
2023/01/23 06:37:11;;;;;;;1.25;1.20;;;13.20;46.30;;;;;;5087506;28;45264;-70
2023/01/23 06:39:38;;;;;;;1.47;1.37;;;13.20;46.30;;;;;;5087873;28;45291;-71
2023/01/23 06:42:09;;;;;;;1.40;1.30;;;13.20;46.30;;;;;;5087395;28;45233;-71
2023/01/23 06:44:35;;;;;;;1.48;1.38;;;13.20;46.30;;;;;;5087524;27;45199;-70
2023/01/23 06:47:02;;;;;;;1.80;1.38;;;13.20;46.40;;;;;;5087475;28;45301;-70
2023/01/23 06:49:29;;;;;;;1.48;1.38;;;13.20;46.30;;;;;;5086504;27;45334;-70
2023/01/23 06:51:56;;;;;;;1.43;1.33;;;13.20;46.30;;;;;;5087076;28;46371;-71
2023/01/23 06:54:23;;;;;;;1.42;1.33;;;13.20;46.20;;;;;;5087091;28;45228;-70
2023/01/23 06:56:50;;;;;;;1.60;1.50;;;13.10;46.30;;;;;;5087423;28;45300;-71
2023/01/23 06:59:18;;;;;;;1.60;1.30;;;13.10;46.30;;;;;;5087773;28;45295;-71
2023/01/23 07:01:45;;;;;;;1.95;1.40;;;13.10;46.40;;;;;;5087179;28;45440;-71
2023/01/23 07:04:12;;;;;;;1.53;1.30;;;13.10;46.40;;;;;;5086960;27;45187;-69
2023/01/23 07:06:39;;;;;;;2.17;1.20;;;13.00;46.40;;;;;;5087281;27;45225;-72
2023/01/23 07:09:06;;;;;;;1.30;1.20;;;13.00;46.40;;;;;;5087185;28;45233;-72
2023/01/23 07:11:34;;;;;;;1.50;1.40;;;13.00;46.20;;;;;;5086879;28;46691;-73
2023/01/23 07:14:01;;;;;;;1.30;1.20;;;13.00;46.40;;;;;;5086959;27;45303;-72
2023/01/23 07:16:29;;;;;;;1.27;1.10;;;13.00;46.40;;;;;;5086962;28;45235;-72
2023/01/23 07:18:57;;;;;;;1.30;1.20;;;12.90;46.20;;;;;;5087138;28;45325;-72
2023/01/23 07:21:24;;;;;;;1.40;1.30;;;12.90;47.00;;;;;;5086584;28;45439;-72
2023/01/23 07:23:51;;;;;;;1.40;1.10;;;12.90;46.40;;;;;;5086518;27;45232;-72
2023/01/23 07:26:18;;;;;;;1.80;1.35;;;12.90;46.50;;;;;;5087048;28;45203;-72
2023/01/23 07:28:45;;;;;;;1.20;1.10;;;12.90;46.40;;;;;;5086863;28;45234;-72
2023/01/23 07:31:12;;;;;;;1.48;1.00;;;12.90;46.40;;;;;;5086560;28;47329;-72
2023/01/23 07:33:40;;;;;;;1.30;1.20;;;12.90;46.50;;;;;;5086652;28;45331;-72
2023/01/23 07:36:08;;;;;;;0.90;0.90;;;12.90;46.60;;;;;;5086730;28;45215;-72
2023/01/23 07:38:35;;;;;;;1.20;1.10;;;12.90;46.60;;;;;;5086732;28;45195;-72
2023/01/23 07:41:02;;;;;;;1.10;1.10;;;12.90;46.60;;;;;;5086320;27;45418;-72
2023/01/23 07:43:29;;;;;;;1.58;1.02;;;12.90;47.20;;;;;;5086526;28;45245;-72
2023/01/23 07:45:58;;;;;;;1.13;1.10;;;12.80;46.60;;;;;;5086504;28;45310;-72
2023/01/23 07:48:25;;;;;;;1.08;1.00;;;12.80;46.50;;;;;;5086685;28;45352;-72
2023/01/23 07:50:53;;;;;;;1.07;0.97;;;12.80;46.70;;;;;;5086119;28;45518;-73
2023/01/23 07:53:20;;;;;;;1.13;1.03;;;12.80;46.70;;;;;;5086837;28;45367;-72
2023/01/23 07:55:47;;;;;;;1.23;1.10;;;12.80;46.70;;;;;;5086565;27;45237;-72
2023/01/23 07:58:14;;;;;;;1.10;0.97;;;12.80;46.60;;;;;;5086500;28;45412;-72
2023/01/23 08:00:41;;;;;;;1.05;1.00;;;12.80;46.80;;;;;;5085828;27;46636;-72
2023/01/23 08:03:08;;;;;;;1.20;1.10;;;12.80;46.80;;;;;;5086249;28;45239;-72
2023/01/23 08:05:35;;;;;;;1.25;1.02;;;12.80;46.80;;;;;;5086372;28;45290;-72
2023/01/23 08:08:03;;;;;;;0.90;0.90;;;12.80;46.80;;;;;;5086442;28;45184;-72
2023/01/23 08:10:30;;;;;;;2.00;0.90;;;12.80;46.80;;;;;;5086099;28;47358;-72
2023/01/23 08:12:57;;;;;;;1.57;0.90;;;12.80;46.70;;;;;;5085963;28;45445;-72
2023/01/23 08:15:24;;;;;;;1.50;0.93;;;12.80;46.80;;;;;;5085967;28;45399;-72
2023/01/23 08:17:51;;;;;;;1.13;1.00;;;12.80;47.40;;;;;;5086139;28;45491;-72
2023/01/23 08:20:18;;;;;;;1.00;1.00;;;12.80;46.90;;;;;;5085905;28;46318;-72
2023/01/23 08:22:44;;;;;;;1.27;1.15;;;12.80;46.90;;;;;;5086137;27;45193;-72
2023/01/23 08:25:13;;;;;;;1.10;1.00;;;12.80;46.80;;;;;;5085757;28;45203;-72
2023/01/23 08:27:39;;;;;;;1.30;1.10;;;12.80;46.90;;;;;;5086099;27;45404;-72
2023/01/23 08:30:08;;;;;;;1.02;0.93;;;12.80;46.80;;;;;;5085488;28;46624;-71
2023/01/23 08:32:35;;;;;;;1.33;1.10;;;12.70;46.70;;;;;;5085797;27;45201;-72
2023/01/23 08:35:03;;;;;;;1.20;1.00;;;12.80;46.80;;;;;;5086011;27;45448;-72
2023/01/23 08:37:30;;;;;;;1.17;1.00;;;12.70;46.80;;;;;;5086055;28;45360;-72
2023/01/23 08:39:56;;;;;;;0.97;0.97;;;12.70;46.80;;;;;;5085519;28;46690;-72
2023/01/23 08:42:25;;;;;;;1.07;1.07;;;12.70;46.90;;;;;;5085617;28;45233;-72
2023/01/23 08:44:52;;;;;;;0.90;0.90;;;12.70;46.90;;;;;;5085886;27;45308;-72
2023/01/23 08:47:18;;;;;;;0.80;0.80;;;12.70;46.80;;;;;;5085956;28;45396;-72
2023/01/23 08:49:45;;;;;;;0.90;0.90;;;12.70;46.80;;;;;;5085581;28;46656;-72
2023/01/23 08:52:12;;;;;;;1.25;1.00;;;12.70;46.80;;;;;;5085498;28;45172;-72
2023/01/23 08:54:39;;;;;;;1.17;1.08;;;12.70;46.80;;;;;;5082942;28;45268;-72
2023/01/23 08:57:06;;;;;;;1.65;1.17;;;12.70;46.70;;;;;;5085893;27;45307;-72
2023/01/23 08:59:34;;;;;;;1.10;1.00;;;12.70;46.70;;;;;;5085398;28;46451;-72
2023/01/23 09:02:01;;;;;;;1.00;1.00;;;12.70;46.70;;;;;;5085457;27;45369;-72
2023/01/23 09:04:28;;;;;;;1.37;1.00;;;12.70;46.80;;;;;;5085691;28;45243;-72
2023/01/23 09:06:55;;;;;;;1.33;1.20;;;12.70;46.70;;;;;;5085528;28;45239;-72
2023/01/23 09:09:22;;;;;;;1.10;1.00;;;12.70;46.70;;;;;;5085467;28;45615;-72
2023/01/23 09:11:48;;;;;;;1.20;1.10;;;12.70;46.60;;;;;;5085144;27;45328;-72
2023/01/23 09:14:15;;;;;;;1.30;1.10;;;12.70;46.50;;;;;;5088239;28;45398;-72
2023/01/23 09:16:44;;;;;;;1.00;0.90;;;12.70;46.70;;;;;;5089577;28;45438;-72
2023/01/23 09:19:11;;;;;;;1.20;1.10;;;12.70;46.50;;;;;;5088627;28;47649;-73
2023/01/23 09:21:38;;;;;;;1.20;1.10;;;12.70;46.60;;;;;;5088654;28;45317;-72
2023/01/23 09:24:06;;;;;;;1.00;1.00;;;12.70;46.60;;;;;;5088718;28;45303;-72
2023/01/23 09:26:33;;;;;;;1.20;1.10;;;12.70;46.60;;;;;;5088925;28;45267;-72
2023/01/23 09:29:00;;;;;;;1.03;0.93;;;12.80;46.50;;;;;;5088334;27;46882;-72
2023/01/23 09:31:27;;;;;;;0.97;0.93;;;12.90;46.40;;;;;;5088788;28;45240;-72
2023/01/23 09:33:55;;;;;;;1.00;1.00;;;13.00;46.30;;;;;;5088639;28;45295;-72
2023/01/23 09:36:22;;;;;;;1.67;1.30;;;13.10;46.10;;;;;;5089025;28;45452;-72
2023/01/23 09:38:49;;;;;;;1.02;1.02;;;13.10;45.90;;;;;;5088347;28;47479;-72
2023/01/23 09:41:17;;;;;;;1.10;1.00;;;13.20;45.80;;;;;;5088468;28;45202;-73
2023/01/23 09:43:48;;;;;;;1.40;1.17;;;13.30;45.60;;;;;;5088575;28;45225;-72
2023/01/23 09:46:18;;;;;;;1.50;0.87;;;13.30;45.50;;;;;;5088791;28;45190;-73
2023/01/23 09:48:45;;;;;;;0.97;0.97;;;13.40;45.60;;;;;;5088198;27;46507;-72
2023/01/23 09:51:19;;;;;;;1.07;1.07;;;13.30;45.50;;;;;;5088370;27;45291;-70
2023/01/23 09:53:46;;;;;;;0.90;0.90;;;13.30;45.50;;;;;;5088469;27;45339;-73
2023/01/23 09:56:22;;;;;;;2.05;1.40;;;13.30;45.50;;;;;;5088902;28;45384;-72
2023/01/23 09:58:58;;;;;;;1.67;1.10;;;13.30;45.60;;;;;;5087996;28;45248;-72
2023/01/23 10:01:25;;;;;;;0.90;0.90;;;13.20;45.60;;;;;;5088222;28;45263;-72
2023/01/23 10:03:52;;;;;;;1.03;1.03;;;13.20;45.80;;;;;;5088038;27;45367;-72
2023/01/23 10:06:22;;;;;;;1.20;1.15;;;13.20;45.90;;;;;;5088347;28;45399;-73
2023/01/23 10:09:03;;;;;;;1.10;1.00;;;13.10;45.80;;;;;;5088172;27;45271;-73
2023/01/23 10:11:35;;;;;;;1.20;1.10;;;13.10;45.70;;;;;;5087968;28;45334;-73
2023/01/23 10:14:11;;;;;;;1.05;1.00;;;13.10;45.70;;;;;;5087996;28;45205;-72
2023/01/23 10:16:54;;;;;;;1.23;1.13;;;13.10;46.20;;;;;;5088245;28;45419;-72
2023/01/23 10:19:35;;;;;;;1.10;1.10;;;13.00;46.00;;;;;;5087620;27;45241;-73
2023/01/23 10:22:07;;;;;;;1.10;0.97;;;13.00;45.90;;;;;;5087478;28;45307;-72
2023/01/23 10:24:41;;;;;;;1.25;1.15;;;13.10;46.10;;;;;;5087101;27;45343;-73
2023/01/23 10:27:18;;;;;;;1.45;1.35;;;13.10;46.10;;;;;;5087753;27;45407;-72
2023/01/23 10:29:46;;;;;;;1.10;1.00;;;13.10;46.00;;;;;;5087387;27;46681;-73
2023/01/23 10:32:24;;;;;;;1.20;1.10;;;13.10;46.00;;;;;;5087640;27;46404;-73
2023/01/23 10:34:57;;;;;;;1.67;1.30;;;13.00;46.00;;;;;;5087817;28;45180;-72
2023/01/23 10:37:37;;;;;;;0.98;0.98;;;13.00;46.10;;;;;;5087814;28;45318;-73
2023/01/23 10:40:06;;;;;;;1.20;1.10;;;13.10;46.30;;;;;;5087685;28;46396;-72
2023/01/23 10:42:36;;;;;;;1.10;1.00;;;13.00;46.20;;;;;;5087499;28;45293;-72
2023/01/23 10:45:03;;;;;;;1.58;1.48;;;13.00;46.30;;;;;;5087713;27;45302;-72
2023/01/23 10:47:33;;;;;;;2.40;1.02;;;13.00;46.30;;;;;;5087759;28;45255;-72
2023/01/23 10:50:00;;;;;;;1.25;1.13;;;13.00;46.30;;;;;;5087255;27;46415;-72
2023/01/23 10:52:33;;;;;;;1.23;1.15;;;13.00;46.40;;;;;;5087166;28;45280;-72
2023/01/23 10:55:00;;;;;;;1.70;1.60;;;13.00;46.40;;;;;;5087320;27;45304;-71
2023/01/23 10:57:27;;;;;;;1.52;1.40;;;13.00;46.40;;;;;;5087432;28;45268;-73
2023/01/23 10:59:55;;;;;;;1.25;1.10;;;13.00;46.40;;;;;;5087499;28;48783;-72
2023/01/23 11:02:27;;;;;;;1.47;1.20;;;13.00;46.40;;;;;;5087228;28;45453;-72
2023/01/23 11:04:54;;;;;;;1.73;1.42;;;13.00;46.40;;;;;;5087259;28;45418;-72
2023/01/23 11:07:22;;;;;;;1.30;1.20;;;13.00;46.50;;;;;;5087446;28;45296;-72
2023/01/23 11:09:54;;;;;;;1.43;1.33;;;13.00;46.50;;;;;;5087269;28;46710;-72
2023/01/23 11:12:23;;;;;;;1.43;1.30;;;13.00;46.50;;;;;;5087145;27;45249;-72
2023/01/23 11:14:49;;;;;;;1.20;1.10;;;13.00;46.40;;;;;;5087262;28;45192;-71
2023/01/23 11:17:22;;;;;;;1.70;1.38;;;13.00;46.50;;;;;;5087088;28;45308;-72
2023/01/23 11:19:50;;;;;;;1.35;1.25;;;13.00;46.50;;;;;;5086865;28;46377;-72
2023/01/23 11:22:26;;;;;;;1.73;1.27;;;13.00;46.50;;;;;;5086895;28;45230;-71
2023/01/23 11:24:54;;;;;;;1.40;1.15;;;13.00;46.40;;;;;;5086484;28;45418;-71
2023/01/23 11:27:25;;;;;;;1.15;1.08;;;13.00;46.50;;;;;;5086939;28;45513;-71
2023/01/23 11:30:17;;;;;;;3.00;1.30;;;13.00;46.50;;;;;;5086817;28;45466;-72
2023/01/23 11:32:49;;;;;;;1.20;1.10;;;13.00;46.50;;;;;;5086568;27;45277;-72
2023/01/23 11:35:18;;;;;;;1.30;1.20;;;13.00;46.50;;;;;;5086469;27;45425;-71
2023/01/23 11:37:44;;;;;;;1.10;1.00;;;13.00;46.50;;;;;;5086828;28;45456;-71
2023/01/23 11:40:14;;;;;;;1.10;1.00;;;13.00;46.40;;;;;;5086536;28;46608;-71
2023/01/23 11:42:41;;;;;;;1.33;1.23;;;13.00;47.10;;;;;;5086265;28;45314;-71
2023/01/23 11:45:13;;;;;;;1.60;1.23;;;13.00;46.40;;;;;;5086651;27;45232;-71
2023/01/23 11:47:58;;;;;;;1.67;1.20;;;13.00;46.40;;;;;;5086778;28;45291;-72
2023/01/23 11:50:34;;;;;;;1.40;1.30;;;13.00;46.40;;;;;;5085758;28;45429;-71
2023/01/23 11:53:05;;;;;;;1.17;1.07;;;13.00;46.50;;;;;;5086050;27;45302;-72
2023/01/23 11:56:04;;;;;;;1.20;1.10;;;13.00;46.50;;;;;;5086458;27;45272;-72
2023/01/23 11:58:53;;;;;;;1.15;1.02;;;13.00;46.50;;;;;;5073944;27;45326;-72
2023/01/23 12:01:21;;;;;;;1.35;1.02;;;13.10;46.60;;;;;;5086170;27;46407;-72
2023/01/23 12:04:08;;;;;;;1.23;1.13;;;13.10;46.60;;;;;;5086305;28;45192;-72
2023/01/23 12:06:40;;;;;;;1.20;1.10;;;13.00;46.60;;;;;;5086395;28;45305;-72
2023/01/23 12:09:11;;;;;;;1.50;1.25;;;13.10;46.60;;;;;;5086525;28;45186;-72
2023/01/23 12:11:44;;;;;;;1.27;1.15;;;13.10;46.60;;;;;;5085979;28;46299;-71
2023/01/23 12:14:20;;;;;;;2.50;1.50;;;13.10;46.50;;;;;;5086110;28;45310;-71
2023/01/23 12:17:07;;;;;;;1.30;1.20;;;13.10;46.50;;;;;;5086141;28;45315;-73
2023/01/23 12:19:45;;;;;;;1.30;1.20;;;13.10;46.60;;;;;;5086696;27;45414;-71
2023/01/23 12:22:15;;;;;;;1.20;1.10;;;13.10;46.60;;;;;;5086008;28;45460;-71
2023/01/23 12:24:59;;;;;;;2.05;1.42;;;13.10;46.50;;;;;;5085486;28;45359;-72
2023/01/23 12:27:40;;;;;;;1.40;1.30;;;13.10;46.60;;;;;;5085937;28;45386;-72
2023/01/23 12:30:23;;;;;;;1.37;1.20;;;13.10;46.60;;;;;;5086529;28;45365;-72
2023/01/23 12:32:57;;;;;;;1.40;1.30;;;13.00;46.60;;;;;;5085705;28;45550;-71
2023/01/23 12:35:35;;;;;;;1.57;1.40;;;13.10;46.70;;;;;;5085649;28;45294;-72
2023/01/23 12:38:13;;;;;;;3.03;1.30;;;13.00;46.70;;;;;;5085865;27;45348;-71
2023/01/23 12:40:41;;;;;;;1.33;1.23;;;13.10;46.70;;;;;;5086073;27;45191;-71
2023/01/23 12:43:12;;;;;;;2.25;1.60;;;13.10;46.60;;;;;;5085506;28;46502;-71
2023/01/23 12:45:41;;;;;;;1.60;1.50;;;13.10;46.70;;;;;;5085616;28;45271;-71
2023/01/23 12:48:11;;;;;;;2.00;1.40;;;13.10;46.70;;;;;;5086879;27;45295;-73
2023/01/23 12:50:41;;;;;;;1.73;1.45;;;13.10;46.70;;;;;;5089566;27;45235;-71
2023/01/23 12:53:10;;;;;;;1.50;1.40;;;13.10;46.70;;;;;;5088995;27;46830;-71
2023/01/23 12:55:37;;;;;;;1.65;1.27;;;13.10;46.70;;;;;;5089099;27;45223;-71
2023/01/23 12:58:04;;;;;;;1.33;1.23;;;13.10;46.70;;;;;;5088921;28;45140;-71
2023/01/23 13:00:43;;;;;;;1.60;1.50;;;13.10;46.70;;;;;;5089313;28;45411;-71
2023/01/23 13:03:18;;;;;;;1.20;1.15;;;13.10;46.70;;;;;;5088989;28;45510;-71